sensor_id;sensor_type;location;lat;lon;timestamp;P1;durP1;ratioP1;P2;durP2;ratioP2
20986;SDS011;10652;50.306;8.570;2024-01-16T00:01:09;6.22;;;1.38;;
20986;SDS011;10652;50.306;8.570;2024-01-16T00:05:11;6.50;;;1.60;;
20986;SDS011;10652;50.306;8.570;2024-01-16T00:09:13;3.55;;;1.13;;
20986;SDS011;10652;50.306;8.570;2024-01-16T00:13:15;5.38;;;1.63;;
20986;SDS011;10652;50.306;8.570;2024-01-16T00:17:18;5.38;;;1.75;;
20986;SDS011;10652;50.306;8.570;2024-01-16T00:21:20;4.40;;;1.45;;
20986;SDS011;10652;50.306;8.570;2024-01-16T00:25:22;5.57;;;1.58;;
20986;SDS011;10652;50.306;8.570;2024-01-16T00:29:25;4.93;;;1.70;;
20986;SDS011;10652;50.306;8.570;2024-01-16T00:33:27;5.53;;;1.50;;
20986;SDS011;10652;50.306;8.570;2024-01-16T00:37:29;6.43;;;1.55;;
20986;SDS011;10652;50.306;8.570;2024-01-16T00:41:31;5.70;;;1.80;;
20986;SDS011;10652;50.306;8.570;2024-01-16T00:45:33;6.95;;;2.08;;
20986;SDS011;10652;50.306;8.570;2024-01-16T00:49:36;5.45;;;1.75;;
20986;SDS011;10652;50.306;8.570;2024-01-16T00:53:42;5.32;;;2.22;;
20986;SDS011;10652;50.306;8.570;2024-01-16T00:57:44;4.00;;;2.08;;
20986;SDS011;10652;50.306;8.570;2024-01-16T01:01:46;5.32;;;2.25;;
20986;SDS011;10652;50.306;8.570;2024-01-16T01:05:48;5.10;;;2.10;;
20986;SDS011;10652;50.306;8.570;2024-01-16T01:09:51;3.92;;;2.10;;
20986;SDS011;10652;50.306;8.570;2024-01-16T01:13:53;7.70;;;1.95;;
20986;SDS011;10652;50.306;8.570;2024-01-16T01:17:55;5.60;;;2.10;;
20986;SDS011;10652;50.306;8.570;2024-01-16T01:21:57;4.07;;;1.88;;
20986;SDS011;10652;50.306;8.570;2024-01-16T01:26:00;5.47;;;1.98;;
20986;SDS011;10652;50.306;8.570;2024-01-16T01:30:02;3.00;;;1.88;;
20986;SDS011;10652;50.306;8.570;2024-01-16T01:34:05;7.13;;;2.58;;
20986;SDS011;10652;50.306;8.570;2024-01-16T01:38:09;3.35;;;2.15;;
20986;SDS011;10652;50.306;8.570;2024-01-16T01:42:11;4.65;;;2.30;;
20986;SDS011;10652;50.306;8.570;2024-01-16T01:46:14;4.85;;;2.17;;
20986;SDS011;10652;50.306;8.570;2024-01-16T01:50:19;4.93;;;1.88;;
20986;SDS011;10652;50.306;8.570;2024-01-16T01:54:21;5.03;;;2.30;;
20986;SDS011;10652;50.306;8.570;2024-01-16T01:58:24;6.53;;;2.70;;
20986;SDS011;10652;50.306;8.570;2024-01-16T02:02:27;4.00;;;1.95;;
20986;SDS011;10652;50.306;8.570;2024-01-16T02:06:29;5.80;;;2.30;;
20986;SDS011;10652;50.306;8.570;2024-01-16T02:10:32;4.47;;;2.38;;
20986;SDS011;10652;50.306;8.570;2024-01-16T02:14:34;5.43;;;2.47;;
20986;SDS011;10652;50.306;8.570;2024-01-16T02:18:36;5.30;;;2.58;;
20986;SDS011;10652;50.306;8.570;2024-01-16T02:22:38;6.93;;;2.90;;
20986;SDS011;10652;50.306;8.570;2024-01-16T02:26:45;7.03;;;2.60;;
20986;SDS011;10652;50.306;8.570;2024-01-16T02:30:48;5.38;;;2.72;;
20986;SDS011;10652;50.306;8.570;2024-01-16T02:34:50;4.68;;;3.05;;
20986;SDS011;10652;50.306;8.570;2024-01-16T02:38:52;6.57;;;3.00;;
20986;SDS011;10652;50.306;8.570;2024-01-16T02:42:54;6.47;;;3.00;;
20986;SDS011;10652;50.306;8.570;2024-01-16T02:46:57;4.22;;;3.10;;
20986;SDS011;10652;50.306;8.570;2024-01-16T02:50:59;5.40;;;3.10;;
20986;SDS011;10652;50.306;8.570;2024-01-16T02:55:01;8.13;;;3.50;;
20986;SDS011;10652;50.306;8.570;2024-01-16T02:59:03;5.60;;;3.25;;
20986;SDS011;10652;50.306;8.570;2024-01-16T03:03:05;6.50;;;3.20;;
20986;SDS011;10652;50.306;8.570;2024-01-16T03:07:10;6.43;;;3.22;;
20986;SDS011;10652;50.306;8.570;2024-01-16T03:11:12;5.70;;;3.05;;
20986;SDS011;10652;50.306;8.570;2024-01-16T03:15:14;6.97;;;3.17;;
20986;SDS011;10652;50.306;8.570;2024-01-16T03:19:16;5.88;;;3.40;;
20986;SDS011;10652;50.306;8.570;2024-01-16T03:23:18;6.20;;;3.65;;
20986;SDS011;10652;50.306;8.570;2024-01-16T03:27:20;10.48;;;3.80;;
20986;SDS011;10652;50.306;8.570;2024-01-16T03:31:22;7.03;;;3.28;;
20986;SDS011;10652;50.306;8.570;2024-01-16T03:35:25;7.55;;;3.22;;
20986;SDS011;10652;50.306;8.570;2024-01-16T03:39:27;5.82;;;3.20;;
20986;SDS011;10652;50.306;8.570;2024-01-16T03:43:29;6.40;;;3.10;;
20986;SDS011;10652;50.306;8.570;2024-01-16T03:47:31;6.13;;;3.17;;
20986;SDS011;10652;50.306;8.570;2024-01-16T03:51:34;7.80;;;3.17;;
20986;SDS011;10652;50.306;8.570;2024-01-16T03:55:36;8.25;;;3.08;;
20986;SDS011;10652;50.306;8.570;2024-01-16T03:59:38;8.48;;;3.20;;
20986;SDS011;10652;50.306;8.570;2024-01-16T04:03:40;6.53;;;2.90;;
20986;SDS011;10652;50.306;8.570;2024-01-16T04:07:42;8.60;;;3.05;;
20986;SDS011;10652;50.306;8.570;2024-01-16T04:11:44;8.10;;;3.33;;
20986;SDS011;10652;50.306;8.570;2024-01-16T04:15:49;8.98;;;3.00;;
20986;SDS011;10652;50.306;8.570;2024-01-16T04:19:51;6.65;;;3.13;;
20986;SDS011;10652;50.306;8.570;2024-01-16T04:23:53;8.20;;;2.92;;
20986;SDS011;10652;50.306;8.570;2024-01-16T04:27:55;8.80;;;3.20;;
20986;SDS011;10652;50.306;8.570;2024-01-16T04:32:01;5.95;;;3.10;;
20986;SDS011;10652;50.306;8.570;2024-01-16T04:36:04;7.75;;;2.95;;
20986;SDS011;10652;50.306;8.570;2024-01-16T04:40:07;6.65;;;2.85;;
20986;SDS011;10652;50.306;8.570;2024-01-16T04:44:09;5.82;;;3.15;;
20986;SDS011;10652;50.306;8.570;2024-01-16T04:48:12;5.93;;;2.70;;
20986;SDS011;10652;50.306;8.570;2024-01-16T04:52:14;8.05;;;2.67;;
20986;SDS011;10652;50.306;8.570;2024-01-16T04:56:16;6.47;;;3.08;;
20986;SDS011;10652;50.306;8.570;2024-01-16T05:00:19;8.25;;;3.10;;
20986;SDS011;10652;50.306;8.570;2024-01-16T05:04:21;4.55;;;2.80;;
20986;SDS011;10652;50.306;8.570;2024-01-16T05:08:24;6.43;;;2.55;;
20986;SDS011;10652;50.306;8.570;2024-01-16T05:12:27;7.35;;;2.63;;
20986;SDS011;10652;50.306;8.570;2024-01-16T05:16:29;5.55;;;2.60;;
20986;SDS011;10652;50.306;8.570;2024-01-16T05:20:31;6.00;;;2.90;;
20986;SDS011;10652;50.306;8.570;2024-01-16T05:24:33;7.53;;;2.90;;
20986;SDS011;10652;50.306;8.570;2024-01-16T05:28:35;9.07;;;3.20;;
20986;SDS011;10652;50.306;8.570;2024-01-16T05:32:37;7.20;;;3.03;;
20986;SDS011;10652;50.306;8.570;2024-01-16T05:36:42;6.97;;;2.90;;
20986;SDS011;10652;50.306;8.570;2024-01-16T05:40:45;7.57;;;3.05;;
20986;SDS011;10652;50.306;8.570;2024-01-16T05:44:47;7.32;;;3.00;;
20986;SDS011;10652;50.306;8.570;2024-01-16T05:48:50;6.78;;;3.30;;
20986;SDS011;10652;50.306;8.570;2024-01-16T05:52:52;4.25;;;2.78;;
20986;SDS011;10652;50.306;8.570;2024-01-16T05:56:55;6.03;;;2.70;;
20986;SDS011;10652;50.306;8.570;2024-01-16T06:00:57;9.00;;;3.35;;
20986;SDS011;10652;50.306;8.570;2024-01-16T06:04:59;8.35;;;2.90;;
20986;SDS011;10652;50.306;8.570;2024-01-16T06:09:01;8.43;;;2.80;;
20986;SDS011;10652;50.306;8.570;2024-01-16T06:13:07;4.10;;;2.60;;
20986;SDS011;10652;50.306;8.570;2024-01-16T06:17:09;7.55;;;3.00;;
20986;SDS011;10652;50.306;8.570;2024-01-16T06:21:11;8.60;;;3.10;;
20986;SDS011;10652;50.306;8.570;2024-01-16T06:25:14;10.20;;;3.33;;
20986;SDS011;10652;50.306;8.570;2024-01-16T06:29:16;7.05;;;2.90;;
20986;SDS011;10652;50.306;8.570;2024-01-16T06:33:32;6.38;;;2.53;;
20986;SDS011;10652;50.306;8.570;2024-01-16T06:37:34;7.63;;;3.33;;
20986;SDS011;10652;50.306;8.570;2024-01-16T06:41:38;8.10;;;3.30;;
20986;SDS011;10652;50.306;8.570;2024-01-16T06:45:43;8.13;;;3.03;;
20986;SDS011;10652;50.306;8.570;2024-01-16T06:49:46;9.48;;;3.15;;
20986;SDS011;10652;50.306;8.570;2024-01-16T06:53:48;10.98;;;3.00;;
20986;SDS011;10652;50.306;8.570;2024-01-16T06:57:51;7.43;;;2.58;;
20986;SDS011;10652;50.306;8.570;2024-01-16T07:01:53;5.93;;;2.65;;
20986;SDS011;10652;50.306;8.570;2024-01-16T07:05:56;6.43;;;3.08;;
20986;SDS011;10652;50.306;8.570;2024-01-16T07:09:58;7.88;;;3.20;;
20986;SDS011;10652;50.306;8.570;2024-01-16T07:14:01;10.15;;;3.15;;
20986;SDS011;10652;50.306;8.570;2024-01-16T07:18:03;8.07;;;3.25;;
20986;SDS011;10652;50.306;8.570;2024-01-16T07:22:05;7.10;;;3.35;;
20986;SDS011;10652;50.306;8.570;2024-01-16T07:26:07;5.13;;;2.80;;
20986;SDS011;10652;50.306;8.570;2024-01-16T07:30:10;5.57;;;2.92;;
20986;SDS011;10652;50.306;8.570;2024-01-16T07:34:12;8.23;;;3.15;;
20986;SDS011;10652;50.306;8.570;2024-01-16T07:38:19;7.38;;;2.80;;
20986;SDS011;10652;50.306;8.570;2024-01-16T07:42:21;7.18;;;2.90;;
20986;SDS011;10652;50.306;8.570;2024-01-16T07:46:23;9.40;;;3.20;;
20986;SDS011;10652;50.306;8.570;2024-01-16T07:50:25;7.30;;;3.05;;
20986;SDS011;10652;50.306;8.570;2024-01-16T07:54:27;6.53;;;2.60;;
20986;SDS011;10652;50.306;8.570;2024-01-16T07:58:30;8.95;;;2.80;;
20986;SDS011;10652;50.306;8.570;2024-01-16T08:02:33;5.18;;;2.63;;
20986;SDS011;10652;50.306;8.570;2024-01-16T08:06:39;8.32;;;2.95;;
20986;SDS011;10652;50.306;8.570;2024-01-16T08:10:41;5.53;;;3.17;;
20986;SDS011;10652;50.306;8.570;2024-01-16T08:14:44;6.47;;;3.08;;
20986;SDS011;10652;50.306;8.570;2024-01-16T08:18:46;6.25;;;3.28;;
20986;SDS011;10652;50.306;8.570;2024-01-16T08:22:48;6.50;;;2.92;;
20986;SDS011;10652;50.306;8.570;2024-01-16T08:26:52;10.15;;;3.40;;
20986;SDS011;10652;50.306;8.570;2024-01-16T08:30:54;8.52;;;2.88;;
20986;SDS011;10652;50.306;8.570;2024-01-16T08:34:56;9.05;;;2.63;;
20986;SDS011;10652;50.306;8.570;2024-01-16T08:38:59;6.07;;;2.60;;
20986;SDS011;10652;50.306;8.570;2024-01-16T08:43:01;6.68;;;2.35;;
20986;SDS011;10652;50.306;8.570;2024-01-16T08:47:03;9.25;;;3.35;;
20986;SDS011;10652;50.306;8.570;2024-01-16T08:51:08;10.73;;;3.38;;
20986;SDS011;10652;50.306;8.570;2024-01-16T08:55:16;6.22;;;2.97;;
20986;SDS011;10652;50.306;8.570;2024-01-16T08:59:18;7.00;;;2.50;;
20986;SDS011;10652;50.306;8.570;2024-01-16T09:03:20;22.65;;;13.05;;
20986;SDS011;10652;50.306;8.570;2024-01-16T09:07:23;18.02;;;10.63;;
20986;SDS011;10652;50.306;8.570;2024-01-16T09:11:25;5.63;;;3.10;;
20986;SDS011;10652;50.306;8.570;2024-01-16T09:15:27;6.82;;;2.35;;
20986;SDS011;10652;50.306;8.570;2024-01-16T09:19:29;5.15;;;2.50;;
20986;SDS011;10652;50.306;8.570;2024-01-16T09:23:32;5.82;;;2.22;;
20986;SDS011;10652;50.306;8.570;2024-01-16T09:27:34;3.90;;;2.33;;
20986;SDS011;10652;50.306;8.570;2024-01-16T09:31:36;6.88;;;2.65;;
20986;SDS011;10652;50.306;8.570;2024-01-16T09:35:38;7.93;;;2.10;;
20986;SDS011;10652;50.306;8.570;2024-01-16T09:39:41;4.57;;;2.10;;
20986;SDS011;10652;50.306;8.570;2024-01-16T09:43:44;7.80;;;2.17;;
20986;SDS011;10652;50.306;8.570;2024-01-16T09:47:49;6.32;;;1.85;;
20986;SDS011;10652;50.306;8.570;2024-01-16T09:51:53;7.47;;;2.10;;
20986;SDS011;10652;50.306;8.570;2024-01-16T09:55:55;4.78;;;1.88;;
20986;SDS011;10652;50.306;8.570;2024-01-16T10:00:03;4.20;;;1.80;;
20986;SDS011;10652;50.306;8.570;2024-01-16T10:04:07;3.83;;;1.80;;
20986;SDS011;10652;50.306;8.570;2024-01-16T10:08:10;5.53;;;1.70;;
20986;SDS011;10652;50.306;8.570;2024-01-16T10:12:12;4.38;;;1.70;;
20986;SDS011;10652;50.306;8.570;2024-01-16T10:16:14;5.20;;;1.50;;
20986;SDS011;10652;50.306;8.570;2024-01-16T10:20:16;5.90;;;1.83;;
20986;SDS011;10652;50.306;8.570;2024-01-16T10:24:34;3.92;;;1.50;;
20986;SDS011;10652;50.306;8.570;2024-01-16T10:28:41;6.78;;;1.77;;
20986;SDS011;10652;50.306;8.570;2024-01-16T10:32:44;5.05;;;1.75;;
20986;SDS011;10652;50.306;8.570;2024-01-16T10:36:49;7.18;;;1.95;;
20986;SDS011;10652;50.306;8.570;2024-01-16T10:41:04;4.47;;;1.77;;
20986;SDS011;10652;50.306;8.570;2024-01-16T10:45:07;5.28;;;1.80;;
20986;SDS011;10652;50.306;8.570;2024-01-16T10:49:10;7.25;;;1.80;;
20986;SDS011;10652;50.306;8.570;2024-01-16T10:53:12;5.15;;;1.70;;
20986;SDS011;10652;50.306;8.570;2024-01-16T10:57:18;4.80;;;1.47;;
20986;SDS011;10652;50.306;8.570;2024-01-16T11:01:21;4.43;;;1.73;;
20986;SDS011;10652;50.306;8.570;2024-01-16T11:05:24;7.53;;;2.13;;
20986;SDS011;10652;50.306;8.570;2024-01-16T11:09:28;5.43;;;1.60;;
20986;SDS011;10652;50.306;8.570;2024-01-16T11:13:31;4.47;;;2.00;;
20986;SDS011;10652;50.306;8.570;2024-01-16T11:17:35;5.32;;;2.20;;
20986;SDS011;10652;50.306;8.570;2024-01-16T11:21:39;3.42;;;1.20;;
20986;SDS011;10652;50.306;8.570;2024-01-16T11:25:43;5.70;;;1.63;;
20986;SDS011;10652;50.306;8.570;2024-01-16T11:29:45;4.05;;;1.30;;
20986;SDS011;10652;50.306;8.570;2024-01-16T11:33:51;8.00;;;1.60;;
20986;SDS011;10652;50.306;8.570;2024-01-16T11:37:54;4.18;;;1.52;;
20986;SDS011;10652;50.306;8.570;2024-01-16T11:41:56;4.50;;;1.98;;
20986;SDS011;10652;50.306;8.570;2024-01-16T11:46:00;4.75;;;2.13;;
20986;SDS011;10652;50.306;8.570;2024-01-16T11:50:13;2.78;;;1.10;;
20986;SDS011;10652;50.306;8.570;2024-01-16T11:54:30;2.70;;;1.42;;
20986;SDS011;10652;50.306;8.570;2024-01-16T12:02:49;3.72;;;1.20;;
20986;SDS011;10652;50.306;8.570;2024-01-16T12:06:59;3.40;;;1.17;;
20986;SDS011;10652;50.306;8.570;2024-01-16T12:11:03;4.38;;;1.40;;
20986;SDS011;10652;50.306;8.570;2024-01-16T12:15:06;3.20;;;1.38;;
20986;SDS011;10652;50.306;8.570;2024-01-16T12:19:09;4.13;;;1.38;;
20986;SDS011;10652;50.306;8.570;2024-01-16T12:23:13;3.22;;;1.30;;
20986;SDS011;10652;50.306;8.570;2024-01-16T12:27:16;5.57;;;1.83;;
20986;SDS011;10652;50.306;8.570;2024-01-16T12:31:18;4.28;;;1.20;;
20986;SDS011;10652;50.306;8.570;2024-01-16T12:35:20;9.13;;;1.85;;
20986;SDS011;10652;50.306;8.570;2024-01-16T12:39:23;8.30;;;3.30;;
20986;SDS011;10652;50.306;8.570;2024-01-16T12:43:25;6.05;;;2.70;;
20986;SDS011;10652;50.306;8.570;2024-01-16T12:47:27;7.07;;;2.60;;
20986;SDS011;10652;50.306;8.570;2024-01-16T12:51:30;5.78;;;1.70;;
20986;SDS011;10652;50.306;8.570;2024-01-16T12:55:33;4.47;;;1.33;;
20986;SDS011;10652;50.306;8.570;2024-01-16T12:59:39;5.87;;;1.30;;
20986;SDS011;10652;50.306;8.570;2024-01-16T13:03:41;6.13;;;1.55;;
20986;SDS011;10652;50.306;8.570;2024-01-16T13:07:44;2.65;;;1.20;;
20986;SDS011;10652;50.306;8.570;2024-01-16T13:11:50;6.25;;;1.50;;
20986;SDS011;10652;50.306;8.570;2024-01-16T13:15:54;4.00;;;1.10;;
20986;SDS011;10652;50.306;8.570;2024-01-16T13:19:58;4.70;;;1.00;;
20986;SDS011;10652;50.306;8.570;2024-01-16T13:24:02;5.35;;;1.40;;
20986;SDS011;10652;50.306;8.570;2024-01-16T13:28:07;6.47;;;1.50;;
20986;SDS011;10652;50.306;8.570;2024-01-16T13:32:09;4.28;;;1.23;;
20986;SDS011;10652;50.306;8.570;2024-01-16T13:36:11;5.47;;;1.33;;
20986;SDS011;10652;50.306;8.570;2024-01-16T13:40:14;5.32;;;1.50;;
20986;SDS011;10652;50.306;8.570;2024-01-16T13:44:18;3.67;;;1.25;;
20986;SDS011;10652;50.306;8.570;2024-01-16T13:48:20;4.35;;;1.85;;
20986;SDS011;10652;50.306;8.570;2024-01-16T13:52:23;3.08;;;1.40;;
20986;SDS011;10652;50.306;8.570;2024-01-16T13:56:28;6.68;;;1.58;;
20986;SDS011;10652;50.306;8.570;2024-01-16T14:00:50;5.05;;;1.65;;
20986;SDS011;10652;50.306;8.570;2024-01-16T14:04:53;5.50;;;1.88;;
20986;SDS011;10652;50.306;8.570;2024-01-16T14:08:55;7.30;;;1.80;;
20986;SDS011;10652;50.306;8.570;2024-01-16T14:12:58;3.60;;;1.55;;
20986;SDS011;10652;50.306;8.570;2024-01-16T14:17:00;6.43;;;1.80;;
20986;SDS011;10652;50.306;8.570;2024-01-16T14:21:04;10.77;;;5.18;;
20986;SDS011;10652;50.306;8.570;2024-01-16T14:25:10;4.90;;;2.20;;
20986;SDS011;10652;50.306;8.570;2024-01-16T14:29:13;5.75;;;1.80;;
20986;SDS011;10652;50.306;8.570;2024-01-16T14:33:15;7.20;;;2.17;;
20986;SDS011;10652;50.306;8.570;2024-01-16T14:37:17;5.45;;;2.00;;
20986;SDS011;10652;50.306;8.570;2024-01-16T14:41:20;4.95;;;1.75;;
20986;SDS011;10652;50.306;8.570;2024-01-16T14:45:23;5.15;;;2.20;;
20986;SDS011;10652;50.306;8.570;2024-01-16T14:49:26;5.43;;;2.63;;
20986;SDS011;10652;50.306;8.570;2024-01-16T14:53:33;7.47;;;2.00;;
20986;SDS011;10652;50.306;8.570;2024-01-16T14:57:35;7.70;;;2.55;;
20986;SDS011;10652;50.306;8.570;2024-01-16T15:01:43;10.05;;;3.45;;
20986;SDS011;10652;50.306;8.570;2024-01-16T15:05:47;5.63;;;3.17;;
20986;SDS011;10652;50.306;8.570;2024-01-16T15:09:49;6.43;;;4.03;;
20986;SDS011;10652;50.306;8.570;2024-01-16T15:13:52;8.23;;;4.00;;
20986;SDS011;10652;50.306;8.570;2024-01-16T15:17:54;8.00;;;3.95;;
20986;SDS011;10652;50.306;8.570;2024-01-16T15:21:56;10.15;;;4.47;;
20986;SDS011;10652;50.306;8.570;2024-01-16T15:25:59;9.55;;;4.38;;
20986;SDS011;10652;50.306;8.570;2024-01-16T15:30:05;8.82;;;4.70;;
20986;SDS011;10652;50.306;8.570;2024-01-16T15:34:10;8.40;;;4.88;;
20986;SDS011;10652;50.306;8.570;2024-01-16T15:42:20;11.35;;;5.10;;
20986;SDS011;10652;50.306;8.570;2024-01-16T15:46:23;11.70;;;4.70;;
20986;SDS011;10652;50.306;8.570;2024-01-16T15:50:25;10.07;;;5.10;;
20986;SDS011;10652;50.306;8.570;2024-01-16T15:54:28;9.32;;;5.00;;
20986;SDS011;10652;50.306;8.570;2024-01-16T15:58:32;10.00;;;5.28;;
20986;SDS011;10652;50.306;8.570;2024-01-16T16:02:35;13.68;;;5.75;;
20986;SDS011;10652;50.306;8.570;2024-01-16T16:06:38;11.45;;;6.40;;
20986;SDS011;10652;50.306;8.570;2024-01-16T16:10:42;11.85;;;5.65;;
20986;SDS011;10652;50.306;8.570;2024-01-16T16:14:44;10.60;;;5.97;;
20986;SDS011;10652;50.306;8.570;2024-01-16T16:18:46;14.98;;;5.93;;
20986;SDS011;10652;50.306;8.570;2024-01-16T16:22:49;11.70;;;6.32;;
20986;SDS011;10652;50.306;8.570;2024-01-16T16:26:53;10.02;;;6.05;;
20986;SDS011;10652;50.306;8.570;2024-01-16T16:30:57;10.63;;;6.03;;
20986;SDS011;10652;50.306;8.570;2024-01-16T16:34:59;10.00;;;5.88;;
20986;SDS011;10652;50.306;8.570;2024-01-16T16:39:01;9.02;;;5.57;;
20986;SDS011;10652;50.306;8.570;2024-01-16T16:43:03;13.88;;;5.80;;
20986;SDS011;10652;50.306;8.570;2024-01-16T16:47:06;11.40;;;5.72;;
20986;SDS011;10652;50.306;8.570;2024-01-16T16:51:16;11.05;;;5.85;;
20986;SDS011;10652;50.306;8.570;2024-01-16T16:55:18;11.50;;;6.10;;
20986;SDS011;10652;50.306;8.570;2024-01-16T16:59:21;11.88;;;5.18;;
20986;SDS011;10652;50.306;8.570;2024-01-16T17:03:24;12.45;;;5.13;;
20986;SDS011;10652;50.306;8.570;2024-01-16T17:07:26;9.65;;;5.90;;
20986;SDS011;10652;50.306;8.570;2024-01-16T17:11:28;14.07;;;6.60;;
20986;SDS011;10652;50.306;8.570;2024-01-16T17:15:31;9.40;;;5.18;;
20986;SDS011;10652;50.306;8.570;2024-01-16T17:19:33;10.73;;;5.05;;
20986;SDS011;10652;50.306;8.570;2024-01-16T17:23:35;9.43;;;4.55;;
20986;SDS011;10652;50.306;8.570;2024-01-16T17:27:38;9.43;;;5.53;;
20986;SDS011;10652;50.306;8.570;2024-01-16T17:31:40;13.57;;;5.82;;
20986;SDS011;10652;50.306;8.570;2024-01-16T17:35:44;13.07;;;6.28;;
20986;SDS011;10652;50.306;8.570;2024-01-16T17:39:46;11.20;;;5.70;;
20986;SDS011;10652;50.306;8.570;2024-01-16T17:43:48;14.45;;;8.10;;
20986;SDS011;10652;50.306;8.570;2024-01-16T17:47:51;12.05;;;7.18;;
20986;SDS011;10652;50.306;8.570;2024-01-16T17:51:53;14.60;;;9.13;;
20986;SDS011;10652;50.306;8.570;2024-01-16T17:55:56;17.55;;;9.20;;
20986;SDS011;10652;50.306;8.570;2024-01-16T17:59:58;18.63;;;9.63;;
20986;SDS011;10652;50.306;8.570;2024-01-16T18:04:00;21.90;;;13.90;;
20986;SDS011;10652;50.306;8.570;2024-01-16T18:08:03;19.38;;;11.70;;
20986;SDS011;10652;50.306;8.570;2024-01-16T18:12:06;18.15;;;9.25;;
20986;SDS011;10652;50.306;8.570;2024-01-16T18:16:08;24.88;;;13.10;;
20986;SDS011;10652;50.306;8.570;2024-01-16T18:20:11;23.00;;;10.75;;
20986;SDS011;10652;50.306;8.570;2024-01-16T18:24:15;19.13;;;9.38;;
20986;SDS011;10652;50.306;8.570;2024-01-16T18:28:17;17.70;;;9.75;;
20986;SDS011;10652;50.306;8.570;2024-01-16T18:32:19;22.33;;;12.25;;
20986;SDS011;10652;50.306;8.570;2024-01-16T18:36:22;23.55;;;12.40;;
20986;SDS011;10652;50.306;8.570;2024-01-16T18:40:24;15.05;;;9.60;;
20986;SDS011;10652;50.306;8.570;2024-01-16T18:44:27;16.42;;;10.00;;
20986;SDS011;10652;50.306;8.570;2024-01-16T18:48:30;17.15;;;9.98;;
20986;SDS011;10652;50.306;8.570;2024-01-16T18:52:32;17.58;;;9.13;;
20986;SDS011;10652;50.306;8.570;2024-01-16T18:56:34;22.65;;;12.77;;
20986;SDS011;10652;50.306;8.570;2024-01-16T19:00:37;23.83;;;12.68;;
20986;SDS011;10652;50.306;8.570;2024-01-16T19:04:39;22.35;;;11.45;;
20986;SDS011;10652;50.306;8.570;2024-01-16T19:08:48;15.95;;;9.70;;
20986;SDS011;10652;50.306;8.570;2024-01-16T19:12:51;18.63;;;10.80;;
20986;SDS011;10652;50.306;8.570;2024-01-16T19:16:53;24.25;;;12.48;;
20986;SDS011;10652;50.306;8.570;2024-01-16T19:20:55;19.20;;;10.80;;
20986;SDS011;10652;50.306;8.570;2024-01-16T19:24:57;17.33;;;10.65;;
20986;SDS011;10652;50.306;8.570;2024-01-16T19:29:01;19.88;;;12.13;;
20986;SDS011;10652;50.306;8.570;2024-01-16T19:33:04;24.55;;;12.98;;
20986;SDS011;10652;50.306;8.570;2024-01-16T19:37:10;28.02;;;15.75;;
20986;SDS011;10652;50.306;8.570;2024-01-16T19:41:12;27.90;;;16.50;;
20986;SDS011;10652;50.306;8.570;2024-01-16T19:45:15;105.22;;;46.95;;
20986;SDS011;10652;50.306;8.570;2024-01-16T19:49:20;33.53;;;19.48;;
20986;SDS011;10652;50.306;8.570;2024-01-16T19:53:25;45.88;;;21.17;;
20986;SDS011;10652;50.306;8.570;2024-01-16T19:57:28;36.88;;;19.58;;
20986;SDS011;10652;50.306;8.570;2024-01-16T20:01:30;32.47;;;18.95;;
20986;SDS011;10652;50.306;8.570;2024-01-16T20:05:33;50.65;;;23.67;;
20986;SDS011;10652;50.306;8.570;2024-01-16T20:09:40;21.92;;;12.50;;
20986;SDS011;10652;50.306;8.570;2024-01-16T20:13:42;31.38;;;15.80;;
20986;SDS011;10652;50.306;8.570;2024-01-16T20:17:44;20.50;;;10.48;;
20986;SDS011;10652;50.306;8.570;2024-01-16T20:21:47;21.63;;;12.68;;
20986;SDS011;10652;50.306;8.570;2024-01-16T20:25:50;17.45;;;10.85;;
20986;SDS011;10652;50.306;8.570;2024-01-16T20:29:52;21.70;;;11.82;;
20986;SDS011;10652;50.306;8.570;2024-01-16T20:33:54;25.65;;;16.17;;
20986;SDS011;10652;50.306;8.570;2024-01-16T20:37:58;22.25;;;13.75;;
20986;SDS011;10652;50.306;8.570;2024-01-16T20:42:00;22.48;;;15.07;;
20986;SDS011;10652;50.306;8.570;2024-01-16T20:46:03;25.15;;;14.25;;
20986;SDS011;10652;50.306;8.570;2024-01-16T20:50:06;36.03;;;23.73;;
20986;SDS011;10652;50.306;8.570;2024-01-16T20:54:11;27.80;;;17.17;;
20986;SDS011;10652;50.306;8.570;2024-01-16T20:58:14;22.73;;;15.63;;
20986;SDS011;10652;50.306;8.570;2024-01-16T21:02:16;20.77;;;13.48;;
20986;SDS011;10652;50.306;8.570;2024-01-16T21:06:18;19.70;;;13.23;;
20986;SDS011;10652;50.306;8.570;2024-01-16T21:10:21;22.88;;;12.50;;
20986;SDS011;10652;50.306;8.570;2024-01-16T21:14:23;29.98;;;14.57;;
20986;SDS011;10652;50.306;8.570;2024-01-16T21:18:25;28.60;;;13.13;;
20986;SDS011;10652;50.306;8.570;2024-01-16T21:22:33;28.90;;;13.60;;
20986;SDS011;10652;50.306;8.570;2024-01-16T21:26:38;23.73;;;14.27;;
20986;SDS011;10652;50.306;8.570;2024-01-16T21:30:40;88.50;;;35.58;;
20986;SDS011;10652;50.306;8.570;2024-01-16T21:34:45;39.40;;;22.05;;
20986;SDS011;10652;50.306;8.570;2024-01-16T21:38:48;30.63;;;17.02;;
20986;SDS011;10652;50.306;8.570;2024-01-16T21:42:51;43.45;;;22.00;;
20986;SDS011;10652;50.306;8.570;2024-01-16T21:46:53;36.15;;;18.13;;
20986;SDS011;10652;50.306;8.570;2024-01-16T21:50:56;34.83;;;18.10;;
20986;SDS011;10652;50.306;8.570;2024-01-16T21:55:01;33.72;;;18.50;;
20986;SDS011;10652;50.306;8.570;2024-01-16T21:59:04;33.90;;;18.20;;
20986;SDS011;10652;50.306;8.570;2024-01-16T22:03:06;32.42;;;15.73;;
20986;SDS011;10652;50.306;8.570;2024-01-16T22:07:08;26.23;;;15.25;;
20986;SDS011;10652;50.306;8.570;2024-01-16T22:11:10;29.00;;;14.70;;
20986;SDS011;10652;50.306;8.570;2024-01-16T22:15:13;28.73;;;15.10;;
20986;SDS011;10652;50.306;8.570;2024-01-16T22:19:15;28.25;;;15.10;;
20986;SDS011;10652;50.306;8.570;2024-01-16T22:23:17;33.83;;;18.00;;
20986;SDS011;10652;50.306;8.570;2024-01-16T22:27:20;34.45;;;16.52;;
20986;SDS011;10652;50.306;8.570;2024-01-16T22:31:22;42.78;;;20.13;;
20986;SDS011;10652;50.306;8.570;2024-01-16T22:35:24;33.00;;;16.23;;
20986;SDS011;10652;50.306;8.570;2024-01-16T22:39:26;29.10;;;15.23;;
20986;SDS011;10652;50.306;8.570;2024-01-16T22:43:29;25.35;;;13.50;;
20986;SDS011;10652;50.306;8.570;2024-01-16T22:47:31;26.17;;;14.45;;
20986;SDS011;10652;50.306;8.570;2024-01-16T22:51:34;25.55;;;14.25;;
20986;SDS011;10652;50.306;8.570;2024-01-16T22:55:38;26.60;;;14.35;;
20986;SDS011;10652;50.306;8.570;2024-01-16T22:59:40;26.08;;;13.63;;
20986;SDS011;10652;50.306;8.570;2024-01-16T23:03:42;23.40;;;13.13;;
20986;SDS011;10652;50.306;8.570;2024-01-16T23:07:44;24.30;;;13.93;;
20986;SDS011;10652;50.306;8.570;2024-01-16T23:11:47;23.83;;;13.15;;
20986;SDS011;10652;50.306;8.570;2024-01-16T23:15:49;28.98;;;13.88;;
20986;SDS011;10652;50.306;8.570;2024-01-16T23:19:51;26.52;;;14.27;;
20986;SDS011;10652;50.306;8.570;2024-01-16T23:23:53;28.42;;;13.45;;
20986;SDS011;10652;50.306;8.570;2024-01-16T23:27:55;26.35;;;13.52;;
20986;SDS011;10652;50.306;8.570;2024-01-16T23:31:57;25.65;;;14.43;;
20986;SDS011;10652;50.306;8.570;2024-01-16T23:36:00;27.67;;;15.43;;
20986;SDS011;10652;50.306;8.570;2024-01-16T23:40:03;26.38;;;14.18;;
20986;SDS011;10652;50.306;8.570;2024-01-16T23:44:10;21.35;;;10.32;;
20986;SDS011;10652;50.306;8.570;2024-01-16T23:48:13;20.75;;;10.30;;
20986;SDS011;10652;50.306;8.570;2024-01-16T23:52:15;16.05;;;8.77;;
20986;SDS011;10652;50.306;8.570;2024-01-16T23:56:17;13.35;;;8.13;;
